Annadale, South Africa
Current Conditions -  °F | °C
As of 3:00 PM on Thursday 23 Oct 2014 (Local Time) from FAPP Reporting Station
Few Clouds Few Clouds  
Wind Chill: 73°   Ceiling: Unl
Heat Index: 73°   Visibility: 6mi
Dew Point: 46°   Wind: 7mph
Humidity: 38%   Direction: 20°NNE
Pressure: 30.12"   Gusts: NA
Location:  23.88°S, 29.45°E
Report Text: FAPP 231300Z 02006KT 9999 FEW040 23/08 Q1020 NOSIG
Loading
Personal Weather Stations






























Interactive Weather Map
Tropical Storm Tracking
New forecast layout! Learn more

10-Day Weather Forecast

Advertisements
Track Severe Weather on mobile